sensor_id;sensor_type;location;lat;lon;timestamp;temperature;humidity
16955;DHT22;8594;52.052;8.354;2023-03-03T00:00:09;2.80;99.90
16955;DHT22;8594;52.052;8.354;2023-03-03T00:02:37;3.00;99.90
16955;DHT22;8594;52.052;8.354;2023-03-03T00:05:04;2.90;99.90
16955;DHT22;8594;52.052;8.354;2023-03-03T00:07:32;2.80;99.90
16955;DHT22;8594;52.052;8.354;2023-03-03T00:09:59;2.80;99.90
16955;DHT22;8594;52.052;8.354;2023-03-03T00:12:27;2.80;99.90
16955;DHT22;8594;52.052;8.354;2023-03-03T00:14:56;2.70;99.90
16955;DHT22;8594;52.052;8.354;2023-03-03T00:17:26;2.90;99.90
16955;DHT22;8594;52.052;8.354;2023-03-03T00:19:55;3.00;99.90
16955;DHT22;8594;52.052;8.354;2023-03-03T00:22:27;3.10;99.90
16955;DHT22;8594;52.052;8.354;2023-03-03T00:24:58;3.20;99.90
16955;DHT22;8594;52.052;8.354;2023-03-03T00:27:29;3.30;99.90
16955;DHT22;8594;52.052;8.354;2023-03-03T00:30:00;3.30;99.90
16955;DHT22;8594;52.052;8.354;2023-03-03T00:32:31;3.20;99.90
16955;DHT22;8594;52.052;8.354;2023-03-03T00:35:22;3.20;99.90
16955;DHT22;8594;52.052;8.354;2023-03-03T00:37:53;3.30;99.90
16955;DHT22;8594;52.052;8.354;2023-03-03T00:40:23;3.30;99.90
16955;DHT22;8594;52.052;8.354;2023-03-03T00:42:52;3.30;99.90
16955;DHT22;8594;52.052;8.354;2023-03-03T00:45:27;3.20;99.90
16955;DHT22;8594;52.052;8.354;2023-03-03T00:48:15;3.10;99.90
16955;DHT22;8594;52.052;8.354;2023-03-03T00:50:46;3.10;99.90
16955;DHT22;8594;52.052;8.354;2023-03-03T00:53:15;3.20;99.90
16955;DHT22;8594;52.052;8.354;2023-03-03T00:55:43;3.30;99.90
16955;DHT22;8594;52.052;8.354;2023-03-03T00:58:11;3.50;99.90
16955;DHT22;8594;52.052;8.354;2023-03-03T01:00:39;3.40;99.90
16955;DHT22;8594;52.052;8.354;2023-03-03T01:03:15;3.50;99.90
16955;DHT22;8594;52.052;8.354;2023-03-03T01:05:44;3.60;99.90
16955;DHT22;8594;52.052;8.354;2023-03-03T01:08:11;3.60;99.90
16955;DHT22;8594;52.052;8.354;2023-03-03T01:10:40;3.70;99.90
16955;DHT22;8594;52.052;8.354;2023-03-03T01:13:10;3.30;99.90
16955;DHT22;8594;52.052;8.354;2023-03-03T01:15:37;3.10;99.90
16955;DHT22;8594;52.052;8.354;2023-03-03T01:18:05;3.20;99.90
16955;DHT22;8594;52.052;8.354;2023-03-03T01:20:34;3.20;99.90
16955;DHT22;8594;52.052;8.354;2023-03-03T01:23:01;3.10;99.90
16955;DHT22;8594;52.052;8.354;2023-03-03T01:25:28;3.00;99.90
16955;DHT22;8594;52.052;8.354;2023-03-03T01:27:56;3.10;99.90
16955;DHT22;8594;52.052;8.354;2023-03-03T01:30:23;3.30;99.90
16955;DHT22;8594;52.052;8.354;2023-03-03T01:32:51;3.20;99.90
16955;DHT22;8594;52.052;8.354;2023-03-03T01:35:20;3.10;99.90
16955;DHT22;8594;52.052;8.354;2023-03-03T01:37:47;3.20;99.90
16955;DHT22;8594;52.052;8.354;2023-03-03T01:40:16;3.30;99.90
16955;DHT22;8594;52.052;8.354;2023-03-03T01:42:44;3.00;99.90
16955;DHT22;8594;52.052;8.354;2023-03-03T01:45:19;3.10;99.90
16955;DHT22;8594;52.052;8.354;2023-03-03T01:47:51;3.00;99.90
16955;DHT22;8594;52.052;8.354;2023-03-03T01:50:32;2.90;99.90
16955;DHT22;8594;52.052;8.354;2023-03-03T01:53:05;2.90;99.90
16955;DHT22;8594;52.052;8.354;2023-03-03T01:55:38;3.10;99.90
16955;DHT22;8594;52.052;8.354;2023-03-03T01:58:10;3.10;99.90
16955;DHT22;8594;52.052;8.354;2023-03-03T02:00:45;3.30;99.90
16955;DHT22;8594;52.052;8.354;2023-03-03T02:03:16;3.20;99.90
16955;DHT22;8594;52.052;8.354;2023-03-03T02:05:46;3.30;99.90
16955;DHT22;8594;52.052;8.354;2023-03-03T02:08:16;3.30;99.90
16955;DHT22;8594;52.052;8.354;2023-03-03T02:10:48;3.20;99.90
16955;DHT22;8594;52.052;8.354;2023-03-03T02:13:16;3.30;99.90
16955;DHT22;8594;52.052;8.354;2023-03-03T02:15:42;3.40;99.90
16955;DHT22;8594;52.052;8.354;2023-03-03T02:18:11;3.50;99.90
16955;DHT22;8594;52.052;8.354;2023-03-03T02:20:52;3.30;99.90
16955;DHT22;8594;52.052;8.354;2023-03-03T02:23:28;3.40;99.90
16955;DHT22;8594;52.052;8.354;2023-03-03T02:26:05;3.30;99.90
16955;DHT22;8594;52.052;8.354;2023-03-03T02:28:36;3.30;99.90
16955;DHT22;8594;52.052;8.354;2023-03-03T02:31:05;3.40;99.90
16955;DHT22;8594;52.052;8.354;2023-03-03T02:33:35;3.20;99.90
16955;DHT22;8594;52.052;8.354;2023-03-03T02:36:02;3.40;99.90
16955;DHT22;8594;52.052;8.354;2023-03-03T02:38:33;3.40;99.90
16955;DHT22;8594;52.052;8.354;2023-03-03T02:41:10;3.20;99.90
16955;DHT22;8594;52.052;8.354;2023-03-03T02:43:47;3.10;99.90
16955;DHT22;8594;52.052;8.354;2023-03-03T02:46:18;3.20;99.90
16955;DHT22;8594;52.052;8.354;2023-03-03T02:48:45;3.30;99.90
16955;DHT22;8594;52.052;8.354;2023-03-03T02:51:12;3.40;99.90
16955;DHT22;8594;52.052;8.354;2023-03-03T02:53:40;3.40;99.90
16955;DHT22;8594;52.052;8.354;2023-03-03T02:56:08;3.30;99.90
16955;DHT22;8594;52.052;8.354;2023-03-03T02:58:35;3.30;99.90
16955;DHT22;8594;52.052;8.354;2023-03-03T03:01:03;3.30;99.90
16955;DHT22;8594;52.052;8.354;2023-03-03T03:03:30;3.20;99.90
16955;DHT22;8594;52.052;8.354;2023-03-03T03:05:57;3.20;99.90
16955;DHT22;8594;52.052;8.354;2023-03-03T03:08:24;3.50;99.90
16955;DHT22;8594;52.052;8.354;2023-03-03T03:10:51;3.40;99.90
16955;DHT22;8594;52.052;8.354;2023-03-03T03:13:19;3.20;99.90
16955;DHT22;8594;52.052;8.354;2023-03-03T03:15:46;3.30;99.90
16955;DHT22;8594;52.052;8.354;2023-03-03T03:18:13;3.50;99.90
16955;DHT22;8594;52.052;8.354;2023-03-03T03:20:41;3.50;99.90
16955;DHT22;8594;52.052;8.354;2023-03-03T03:23:09;3.30;99.90
16955;DHT22;8594;52.052;8.354;2023-03-03T03:25:37;3.50;99.90
16955;DHT22;8594;52.052;8.354;2023-03-03T03:28:10;3.30;99.90
16955;DHT22;8594;52.052;8.354;2023-03-03T03:30:38;3.10;99.90
16955;DHT22;8594;52.052;8.354;2023-03-03T03:33:06;3.10;99.90
16955;DHT22;8594;52.052;8.354;2023-03-03T03:35:35;3.30;99.90
16955;DHT22;8594;52.052;8.354;2023-03-03T03:38:02;3.40;99.90
16955;DHT22;8594;52.052;8.354;2023-03-03T03:40:29;3.30;99.90
16955;DHT22;8594;52.052;8.354;2023-03-03T03:42:56;3.40;99.90
16955;DHT22;8594;52.052;8.354;2023-03-03T03:45:23;3.30;99.90
16955;DHT22;8594;52.052;8.354;2023-03-03T03:47:51;3.20;99.90
16955;DHT22;8594;52.052;8.354;2023-03-03T03:50:18;3.40;99.90
16955;DHT22;8594;52.052;8.354;2023-03-03T03:52:45;3.40;99.90
16955;DHT22;8594;52.052;8.354;2023-03-03T03:55:12;3.30;99.90
16955;DHT22;8594;52.052;8.354;2023-03-03T03:57:39;3.10;99.90
16955;DHT22;8594;52.052;8.354;2023-03-03T04:00:07;3.30;99.90
16955;DHT22;8594;52.052;8.354;2023-03-03T04:02:36;3.30;99.90
16955;DHT22;8594;52.052;8.354;2023-03-03T04:05:05;3.10;99.90
16955;DHT22;8594;52.052;8.354;2023-03-03T04:07:33;2.90;99.90
16955;DHT22;8594;52.052;8.354;2023-03-03T04:09:59;3.00;99.90
16955;DHT22;8594;52.052;8.354;2023-03-03T04:12:26;3.20;99.90
16955;DHT22;8594;52.052;8.354;2023-03-03T04:14:53;2.90;99.90
16955;DHT22;8594;52.052;8.354;2023-03-03T04:17:21;2.90;99.90
16955;DHT22;8594;52.052;8.354;2023-03-03T04:19:51;3.20;99.90
16955;DHT22;8594;52.052;8.354;2023-03-03T04:22:20;3.20;99.90
16955;DHT22;8594;52.052;8.354;2023-03-03T04:24:46;3.60;99.90
16955;DHT22;8594;52.052;8.354;2023-03-03T04:27:14;3.10;99.90
16955;DHT22;8594;52.052;8.354;2023-03-03T04:29:41;3.00;99.90
16955;DHT22;8594;52.052;8.354;2023-03-03T04:32:08;2.80;99.90
16955;DHT22;8594;52.052;8.354;2023-03-03T04:34:35;2.80;99.90
16955;DHT22;8594;52.052;8.354;2023-03-03T04:37:02;2.90;99.90
16955;DHT22;8594;52.052;8.354;2023-03-03T04:39:30;2.90;99.90
16955;DHT22;8594;52.052;8.354;2023-03-03T04:41:57;3.20;99.90
16955;DHT22;8594;52.052;8.354;2023-03-03T04:44:24;3.30;99.90
16955;DHT22;8594;52.052;8.354;2023-03-03T04:46:51;3.40;99.90
16955;DHT22;8594;52.052;8.354;2023-03-03T04:49:18;3.50;99.90
16955;DHT22;8594;52.052;8.354;2023-03-03T04:51:44;3.50;99.90
16955;DHT22;8594;52.052;8.354;2023-03-03T04:54:11;3.40;99.90
16955;DHT22;8594;52.052;8.354;2023-03-03T04:56:39;3.30;99.90
16955;DHT22;8594;52.052;8.354;2023-03-03T04:59:06;3.10;99.90
16955;DHT22;8594;52.052;8.354;2023-03-03T05:01:33;3.00;99.90
16955;DHT22;8594;52.052;8.354;2023-03-03T05:04:00;3.00;99.90
16955;DHT22;8594;52.052;8.354;2023-03-03T05:06:27;3.00;99.90
16955;DHT22;8594;52.052;8.354;2023-03-03T05:08:54;3.10;99.90
16955;DHT22;8594;52.052;8.354;2023-03-03T05:11:20;2.90;99.90
16955;DHT22;8594;52.052;8.354;2023-03-03T05:13:49;2.80;99.90
16955;DHT22;8594;52.052;8.354;2023-03-03T05:16:15;2.90;99.90
16955;DHT22;8594;52.052;8.354;2023-03-03T05:18:42;2.80;99.90
16955;DHT22;8594;52.052;8.354;2023-03-03T05:21:10;2.80;99.90
16955;DHT22;8594;52.052;8.354;2023-03-03T05:23:37;2.80;99.90
16955;DHT22;8594;52.052;8.354;2023-03-03T05:26:04;2.80;99.90
16955;DHT22;8594;52.052;8.354;2023-03-03T05:28:31;2.70;99.90
16955;DHT22;8594;52.052;8.354;2023-03-03T05:31:00;2.90;99.90
16955;DHT22;8594;52.052;8.354;2023-03-03T05:33:27;3.00;99.90
16955;DHT22;8594;52.052;8.354;2023-03-03T05:35:54;3.10;99.90
16955;DHT22;8594;52.052;8.354;2023-03-03T05:38:22;3.00;99.90
16955;DHT22;8594;52.052;8.354;2023-03-03T05:40:49;2.80;99.90
16955;DHT22;8594;52.052;8.354;2023-03-03T05:43:16;2.70;99.90
16955;DHT22;8594;52.052;8.354;2023-03-03T05:45:44;2.80;99.90
16955;DHT22;8594;52.052;8.354;2023-03-03T05:48:12;2.70;99.90
16955;DHT22;8594;52.052;8.354;2023-03-03T05:50:39;2.70;99.90
16955;DHT22;8594;52.052;8.354;2023-03-03T05:53:06;2.60;99.90
16955;DHT22;8594;52.052;8.354;2023-03-03T05:55:33;2.60;99.90
16955;DHT22;8594;52.052;8.354;2023-03-03T05:58:00;2.50;99.90
16955;DHT22;8594;52.052;8.354;2023-03-03T06:00:27;2.50;99.90
16955;DHT22;8594;52.052;8.354;2023-03-03T06:02:54;2.80;99.90
16955;DHT22;8594;52.052;8.354;2023-03-03T06:05:22;2.80;99.90
16955;DHT22;8594;52.052;8.354;2023-03-03T06:07:49;2.80;99.90
16955;DHT22;8594;52.052;8.354;2023-03-03T06:10:16;2.80;99.90
16955;DHT22;8594;52.052;8.354;2023-03-03T06:12:42;2.80;99.90
16955;DHT22;8594;52.052;8.354;2023-03-03T06:15:11;2.80;99.90
16955;DHT22;8594;52.052;8.354;2023-03-03T06:17:38;2.90;99.90
16955;DHT22;8594;52.052;8.354;2023-03-03T06:20:06;2.90;99.90
16955;DHT22;8594;52.052;8.354;2023-03-03T06:22:35;2.80;99.90
16955;DHT22;8594;52.052;8.354;2023-03-03T06:25:02;2.80;99.90
16955;DHT22;8594;52.052;8.354;2023-03-03T06:27:29;2.80;99.90
16955;DHT22;8594;52.052;8.354;2023-03-03T06:29:56;2.90;99.90
16955;DHT22;8594;52.052;8.354;2023-03-03T06:32:22;3.00;99.90
16955;DHT22;8594;52.052;8.354;2023-03-03T06:34:49;2.90;99.90
16955;DHT22;8594;52.052;8.354;2023-03-03T06:37:16;3.00;99.90
16955;DHT22;8594;52.052;8.354;2023-03-03T06:39:45;3.00;99.90
16955;DHT22;8594;52.052;8.354;2023-03-03T06:42:11;3.10;99.90
16955;DHT22;8594;52.052;8.354;2023-03-03T06:44:38;3.10;99.90
16955;DHT22;8594;52.052;8.354;2023-03-03T06:47:05;3.10;99.90
16955;DHT22;8594;52.052;8.354;2023-03-03T06:49:32;3.00;99.90
16955;DHT22;8594;52.052;8.354;2023-03-03T06:52:01;3.10;99.90
16955;DHT22;8594;52.052;8.354;2023-03-03T06:54:37;3.10;99.90
16955;DHT22;8594;52.052;8.354;2023-03-03T06:57:14;3.10;99.90
16955;DHT22;8594;52.052;8.354;2023-03-03T06:59:43;2.90;99.90
16955;DHT22;8594;52.052;8.354;2023-03-03T07:02:14;3.10;99.90
16955;DHT22;8594;52.052;8.354;2023-03-03T07:04:43;3.10;99.90
16955;DHT22;8594;52.052;8.354;2023-03-03T07:07:16;3.20;99.90
16955;DHT22;8594;52.052;8.354;2023-03-03T07:09:46;3.20;99.90
16955;DHT22;8594;52.052;8.354;2023-03-03T07:12:18;3.20;99.90
16955;DHT22;8594;52.052;8.354;2023-03-03T07:14:47;3.20;99.90
16955;DHT22;8594;52.052;8.354;2023-03-03T07:17:21;3.20;99.90
16955;DHT22;8594;52.052;8.354;2023-03-03T07:19:50;3.20;99.90
16955;DHT22;8594;52.052;8.354;2023-03-03T07:22:19;3.40;99.90
16955;DHT22;8594;52.052;8.354;2023-03-03T07:24:50;3.40;99.90
16955;DHT22;8594;52.052;8.354;2023-03-03T07:27:22;3.40;99.90
16955;DHT22;8594;52.052;8.354;2023-03-03T07:29:52;3.30;99.90
16955;DHT22;8594;52.052;8.354;2023-03-03T07:32:26;3.20;99.90
16955;DHT22;8594;52.052;8.354;2023-03-03T07:34:59;3.20;99.90
16955;DHT22;8594;52.052;8.354;2023-03-03T07:37:29;3.10;99.90
16955;DHT22;8594;52.052;8.354;2023-03-03T07:40:00;3.20;99.90
16955;DHT22;8594;52.052;8.354;2023-03-03T07:42:52;3.10;99.90
16955;DHT22;8594;52.052;8.354;2023-03-03T07:45:25;3.20;99.90
16955;DHT22;8594;52.052;8.354;2023-03-03T07:47:58;3.10;99.90
16955;DHT22;8594;52.052;8.354;2023-03-03T07:50:31;3.00;99.90
16955;DHT22;8594;52.052;8.354;2023-03-03T07:53:00;3.00;99.90
16955;DHT22;8594;52.052;8.354;2023-03-03T07:55:32;3.10;99.90
16955;DHT22;8594;52.052;8.354;2023-03-03T07:58:21;3.20;99.90
16955;DHT22;8594;52.052;8.354;2023-03-03T08:03:57;3.30;99.90
16955;DHT22;8594;52.052;8.354;2023-03-03T08:06:41;3.40;99.90
16955;DHT22;8594;52.052;8.354;2023-03-03T08:09:25;3.40;99.90
16955;DHT22;8594;52.052;8.354;2023-03-03T08:11:58;3.50;99.90
16955;DHT22;8594;52.052;8.354;2023-03-03T08:14:38;3.50;99.90
16955;DHT22;8594;52.052;8.354;2023-03-03T08:17:13;3.60;99.90
16955;DHT22;8594;52.052;8.354;2023-03-03T08:19:45;3.50;99.90
16955;DHT22;8594;52.052;8.354;2023-03-03T08:22:15;3.50;99.90
16955;DHT22;8594;52.052;8.354;2023-03-03T08:24:44;3.40;99.90
16955;DHT22;8594;52.052;8.354;2023-03-03T08:27:18;3.60;99.90
16955;DHT22;8594;52.052;8.354;2023-03-03T08:29:46;3.60;99.90
16955;DHT22;8594;52.052;8.354;2023-03-03T08:32:14;3.60;99.90
16955;DHT22;8594;52.052;8.354;2023-03-03T08:34:41;3.50;99.90
16955;DHT22;8594;52.052;8.354;2023-03-03T08:37:08;3.40;99.90
16955;DHT22;8594;52.052;8.354;2023-03-03T08:39:36;3.60;99.90
16955;DHT22;8594;52.052;8.354;2023-03-03T08:42:03;3.90;99.90
16955;DHT22;8594;52.052;8.354;2023-03-03T08:44:30;4.00;99.90
16955;DHT22;8594;52.052;8.354;2023-03-03T08:46:58;3.90;99.90
16955;DHT22;8594;52.052;8.354;2023-03-03T08:49:25;3.90;99.90
16955;DHT22;8594;52.052;8.354;2023-03-03T08:51:52;3.90;99.90
16955;DHT22;8594;52.052;8.354;2023-03-03T08:54:19;3.90;99.90
16955;DHT22;8594;52.052;8.354;2023-03-03T08:56:46;4.00;99.90
16955;DHT22;8594;52.052;8.354;2023-03-03T08:59:13;4.10;99.90
16955;DHT22;8594;52.052;8.354;2023-03-03T09:01:40;4.00;99.90
16955;DHT22;8594;52.052;8.354;2023-03-03T09:04:10;3.90;99.90
16955;DHT22;8594;52.052;8.354;2023-03-03T09:06:37;3.90;99.90
16955;DHT22;8594;52.052;8.354;2023-03-03T09:09:04;4.20;99.90
16955;DHT22;8594;52.052;8.354;2023-03-03T09:11:32;4.30;99.90
16955;DHT22;8594;52.052;8.354;2023-03-03T09:14:06;4.40;99.90
16955;DHT22;8594;52.052;8.354;2023-03-03T09:16:37;4.40;99.90
16955;DHT22;8594;52.052;8.354;2023-03-03T09:19:23;4.40;99.90
16955;DHT22;8594;52.052;8.354;2023-03-03T09:21:52;4.30;99.90
16955;DHT22;8594;52.052;8.354;2023-03-03T09:24:26;4.40;99.90
16955;DHT22;8594;52.052;8.354;2023-03-03T09:26:55;4.30;99.90
16955;DHT22;8594;52.052;8.354;2023-03-03T09:29:25;4.10;99.90
16955;DHT22;8594;52.052;8.354;2023-03-03T09:31:54;4.20;99.90
16955;DHT22;8594;52.052;8.354;2023-03-03T09:34:27;4.20;99.90
16955;DHT22;8594;52.052;8.354;2023-03-03T09:37:17;4.40;99.90
16955;DHT22;8594;52.052;8.354;2023-03-03T09:39:48;4.20;99.90
16955;DHT22;8594;52.052;8.354;2023-03-03T09:42:27;4.40;99.90
16955;DHT22;8594;52.052;8.354;2023-03-03T09:45:37;4.40;99.90
16955;DHT22;8594;52.052;8.354;2023-03-03T09:48:26;4.10;99.90
16955;DHT22;8594;52.052;8.354;2023-03-03T09:51:16;4.10;99.90
16955;DHT22;8594;52.052;8.354;2023-03-03T09:54:12;4.10;99.90
16955;DHT22;8594;52.052;8.354;2023-03-03T09:56:55;4.00;99.90
16955;DHT22;8594;52.052;8.354;2023-03-03T09:59:40;4.20;99.90
16955;DHT22;8594;52.052;8.354;2023-03-03T10:02:36;4.50;99.90
16955;DHT22;8594;52.052;8.354;2023-03-03T10:05:16;4.60;99.90
16955;DHT22;8594;52.052;8.354;2023-03-03T10:07:54;4.60;99.90
16955;DHT22;8594;52.052;8.354;2023-03-03T10:10:44;5.00;99.90
16955;DHT22;8594;52.052;8.354;2023-03-03T10:13:30;4.90;99.90
16955;DHT22;8594;52.052;8.354;2023-03-03T10:19:18;5.30;99.90
16955;DHT22;8594;52.052;8.354;2023-03-03T10:22:06;5.10;99.90
16955;DHT22;8594;52.052;8.354;2023-03-03T10:24:54;4.80;99.90
16955;DHT22;8594;52.052;8.354;2023-03-03T10:27:42;4.90;99.90
16955;DHT22;8594;52.052;8.354;2023-03-03T10:30:22;4.70;99.90
16955;DHT22;8594;52.052;8.354;2023-03-03T10:33:01;4.50;99.90
16955;DHT22;8594;52.052;8.354;2023-03-03T10:35:45;4.30;99.90
16955;DHT22;8594;52.052;8.354;2023-03-03T10:38:41;4.50;99.90
16955;DHT22;8594;52.052;8.354;2023-03-03T10:41:29;4.70;99.90
16955;DHT22;8594;52.052;8.354;2023-03-03T10:44:17;4.60;99.90
16955;DHT22;8594;52.052;8.354;2023-03-03T10:47:14;4.90;99.90
16955;DHT22;8594;52.052;8.354;2023-03-03T10:50:02;5.30;99.90
16955;DHT22;8594;52.052;8.354;2023-03-03T10:52:45;5.10;99.90
16955;DHT22;8594;52.052;8.354;2023-03-03T10:55:20;4.90;99.90
16955;DHT22;8594;52.052;8.354;2023-03-03T10:58:13;5.00;99.90
16955;DHT22;8594;52.052;8.354;2023-03-03T11:00:53;5.30;99.90
16955;DHT22;8594;52.052;8.354;2023-03-03T11:04:05;5.80;99.90
16955;DHT22;8594;52.052;8.354;2023-03-03T11:06:54;5.80;99.90
16955;DHT22;8594;52.052;8.354;2023-03-03T11:09:36;5.80;99.90
16955;DHT22;8594;52.052;8.354;2023-03-03T11:12:19;5.80;99.90
16955;DHT22;8594;52.052;8.354;2023-03-03T11:18:11;5.00;99.90
16955;DHT22;8594;52.052;8.354;2023-03-03T11:21:01;5.50;99.90
16955;DHT22;8594;52.052;8.354;2023-03-03T11:23:52;5.70;99.90
16955;DHT22;8594;52.052;8.354;2023-03-03T11:26:40;5.80;99.90
16955;DHT22;8594;52.052;8.354;2023-03-03T11:29:29;5.70;99.90
16955;DHT22;8594;52.052;8.354;2023-03-03T11:32:15;5.70;99.90
16955;DHT22;8594;52.052;8.354;2023-03-03T11:34:59;5.90;99.90
16955;DHT22;8594;52.052;8.354;2023-03-03T11:37:45;5.80;99.90
16955;DHT22;8594;52.052;8.354;2023-03-03T11:40:20;5.80;99.90
16955;DHT22;8594;52.052;8.354;2023-03-03T11:43:00;6.00;99.90
16955;DHT22;8594;52.052;8.354;2023-03-03T11:45:38;5.90;99.90
16955;DHT22;8594;52.052;8.354;2023-03-03T11:48:15;5.80;99.90
16955;DHT22;8594;52.052;8.354;2023-03-03T11:50:53;5.80;99.90
16955;DHT22;8594;52.052;8.354;2023-03-03T11:53:28;5.90;99.90
16955;DHT22;8594;52.052;8.354;2023-03-03T11:56:16;6.00;99.90
16955;DHT22;8594;52.052;8.354;2023-03-03T11:58:53;5.90;99.90
16955;DHT22;8594;52.052;8.354;2023-03-03T12:01:31;6.00;99.90
16955;DHT22;8594;52.052;8.354;2023-03-03T12:04:03;5.80;99.90
16955;DHT22;8594;52.052;8.354;2023-03-03T12:06:41;6.10;99.90
16955;DHT22;8594;52.052;8.354;2023-03-03T12:09:29;6.10;99.90
16955;DHT22;8594;52.052;8.354;2023-03-03T12:12:05;5.90;99.90
16955;DHT22;8594;52.052;8.354;2023-03-03T12:15:03;6.10;99.90
16955;DHT22;8594;52.052;8.354;2023-03-03T12:17:59;6.10;99.90
16955;DHT22;8594;52.052;8.354;2023-03-03T12:20:41;5.90;99.90
16955;DHT22;8594;52.052;8.354;2023-03-03T12:23:28;5.70;99.90
16955;DHT22;8594;52.052;8.354;2023-03-03T12:26:11;5.90;99.90
16955;DHT22;8594;52.052;8.354;2023-03-03T12:28:49;5.90;99.90
16955;DHT22;8594;52.052;8.354;2023-03-03T12:31:28;6.00;99.90
16955;DHT22;8594;52.052;8.354;2023-03-03T12:34:12;6.40;99.90
16955;DHT22;8594;52.052;8.354;2023-03-03T12:36:54;6.80;99.90
16955;DHT22;8594;52.052;8.354;2023-03-03T12:39:41;7.30;99.90
16955;DHT22;8594;52.052;8.354;2023-03-03T12:42:23;7.40;99.90
16955;DHT22;8594;52.052;8.354;2023-03-03T12:45:02;7.90;99.90
16955;DHT22;8594;52.052;8.354;2023-03-03T12:47:40;7.80;99.90
16955;DHT22;8594;52.052;8.354;2023-03-03T12:50:26;7.80;99.90
16955;DHT22;8594;52.052;8.354;2023-03-03T12:53:08;7.50;99.90
16955;DHT22;8594;52.052;8.354;2023-03-03T12:55:49;7.00;99.90
16955;DHT22;8594;52.052;8.354;2023-03-03T12:58:27;6.90;99.90
16955;DHT22;8594;52.052;8.354;2023-03-03T13:01:12;7.00;99.90
16955;DHT22;8594;52.052;8.354;2023-03-03T13:03:59;7.00;99.90
16955;DHT22;8594;52.052;8.354;2023-03-03T13:06:31;7.20;99.90
16955;DHT22;8594;52.052;8.354;2023-03-03T13:09:16;7.10;99.90
16955;DHT22;8594;52.052;8.354;2023-03-03T13:12:00;7.20;99.90
16955;DHT22;8594;52.052;8.354;2023-03-03T13:14:37;7.20;99.90
16955;DHT22;8594;52.052;8.354;2023-03-03T13:17:18;7.50;99.90
16955;DHT22;8594;52.052;8.354;2023-03-03T13:19:51;7.70;99.90
16955;DHT22;8594;52.052;8.354;2023-03-03T13:22:36;7.40;99.90
16955;DHT22;8594;52.052;8.354;2023-03-03T13:25:29;7.30;99.90
16955;DHT22;8594;52.052;8.354;2023-03-03T13:28:16;7.10;99.90
16955;DHT22;8594;52.052;8.354;2023-03-03T13:30:49;7.30;99.90
16955;DHT22;8594;52.052;8.354;2023-03-03T13:33:30;7.30;99.90
16955;DHT22;8594;52.052;8.354;2023-03-03T13:36:02;7.40;99.90
16955;DHT22;8594;52.052;8.354;2023-03-03T13:38:36;7.30;99.90
16955;DHT22;8594;52.052;8.354;2023-03-03T13:41:16;7.10;99.90
16955;DHT22;8594;52.052;8.354;2023-03-03T13:43:52;6.90;99.90
16955;DHT22;8594;52.052;8.354;2023-03-03T13:46:33;7.10;99.90
16955;DHT22;8594;52.052;8.354;2023-03-03T13:49:27;7.50;99.90
16955;DHT22;8594;52.052;8.354;2023-03-03T13:52:05;7.90;99.90
16955;DHT22;8594;52.052;8.354;2023-03-03T13:54:50;7.50;99.90
16955;DHT22;8594;52.052;8.354;2023-03-03T13:57:58;7.60;99.90
16955;DHT22;8594;52.052;8.354;2023-03-03T14:00:33;7.40;99.90
16955;DHT22;8594;52.052;8.354;2023-03-03T14:03:23;7.70;99.90
16955;DHT22;8594;52.052;8.354;2023-03-03T14:06:04;8.10;99.90
16955;DHT22;8594;52.052;8.354;2023-03-03T14:08:55;7.60;99.90
16955;DHT22;8594;52.052;8.354;2023-03-03T14:11:44;7.70;99.90
16955;DHT22;8594;52.052;8.354;2023-03-03T14:14:31;7.70;99.90
16955;DHT22;8594;52.052;8.354;2023-03-03T14:17:14;7.90;99.90
16955;DHT22;8594;52.052;8.354;2023-03-03T14:19:46;7.80;99.90
16955;DHT22;8594;52.052;8.354;2023-03-03T14:22:19;7.70;99.90
16955;DHT22;8594;52.052;8.354;2023-03-03T14:25:00;7.60;99.90
16955;DHT22;8594;52.052;8.354;2023-03-03T14:27:35;7.60;99.90
16955;DHT22;8594;52.052;8.354;2023-03-03T14:30:39;7.70;99.90
16955;DHT22;8594;52.052;8.354;2023-03-03T14:33:27;7.60;99.90
16955;DHT22;8594;52.052;8.354;2023-03-03T14:38:50;7.40;99.90
16955;DHT22;8594;52.052;8.354;2023-03-03T14:41:20;7.50;99.90
16955;DHT22;8594;52.052;8.354;2023-03-03T14:44:01;7.30;99.90
16955;DHT22;8594;52.052;8.354;2023-03-03T14:47:00;7.60;99.90
16955;DHT22;8594;52.052;8.354;2023-03-03T14:49:38;7.10;99.90
16955;DHT22;8594;52.052;8.354;2023-03-03T14:52:18;7.20;99.90
16955;DHT22;8594;52.052;8.354;2023-03-03T14:54:48;7.50;99.90
16955;DHT22;8594;52.052;8.354;2023-03-03T14:57:19;7.10;99.90
16955;DHT22;8594;52.052;8.354;2023-03-03T14:59:59;7.10;99.90
16955;DHT22;8594;52.052;8.354;2023-03-03T15:02:36;7.20;99.90
16955;DHT22;8594;52.052;8.354;2023-03-03T15:05:23;7.20;99.90
16955;DHT22;8594;52.052;8.354;2023-03-03T15:07:52;7.10;99.90
16955;DHT22;8594;52.052;8.354;2023-03-03T15:10:28;7.10;99.90
16955;DHT22;8594;52.052;8.354;2023-03-03T15:13:07;7.20;99.90
16955;DHT22;8594;52.052;8.354;2023-03-03T15:15:49;7.30;99.90
16955;DHT22;8594;52.052;8.354;2023-03-03T15:18:19;7.00;99.90
16955;DHT22;8594;52.052;8.354;2023-03-03T15:20:58;7.10;99.90
16955;DHT22;8594;52.052;8.354;2023-03-03T15:23:49;7.40;99.90
16955;DHT22;8594;52.052;8.354;2023-03-03T15:26:25;7.10;99.90
16955;DHT22;8594;52.052;8.354;2023-03-03T15:29:04;7.10;99.90
16955;DHT22;8594;52.052;8.354;2023-03-03T15:31:43;7.10;99.90
16955;DHT22;8594;52.052;8.354;2023-03-03T15:34:28;7.10;99.90
16955;DHT22;8594;52.052;8.354;2023-03-03T15:37:10;7.20;99.90
16955;DHT22;8594;52.052;8.354;2023-03-03T15:39:57;7.20;99.90
16955;DHT22;8594;52.052;8.354;2023-03-03T15:42:39;7.00;99.90
16955;DHT22;8594;52.052;8.354;2023-03-03T15:45:18;7.10;99.90
16955;DHT22;8594;52.052;8.354;2023-03-03T15:48:09;7.20;99.90
16955;DHT22;8594;52.052;8.354;2023-03-03T15:50:55;7.10;99.90
16955;DHT22;8594;52.052;8.354;2023-03-03T15:53:43;7.10;99.90
16955;DHT22;8594;52.052;8.354;2023-03-03T15:56:27;7.20;99.90
16955;DHT22;8594;52.052;8.354;2023-03-03T15:59:33;7.10;99.90
16955;DHT22;8594;52.052;8.354;2023-03-03T16:02:20;6.80;99.90
16955;DHT22;8594;52.052;8.354;2023-03-03T16:04:55;6.80;99.90
16955;DHT22;8594;52.052;8.354;2023-03-03T16:07:41;6.80;99.90
16955;DHT22;8594;52.052;8.354;2023-03-03T16:10:21;6.50;99.90
16955;DHT22;8594;52.052;8.354;2023-03-03T16:13:01;6.60;99.90
16955;DHT22;8594;52.052;8.354;2023-03-03T16:16:01;6.70;99.90
16955;DHT22;8594;52.052;8.354;2023-03-03T16:18:42;6.80;99.90
16955;DHT22;8594;52.052;8.354;2023-03-03T16:21:24;6.90;99.90
16955;DHT22;8594;52.052;8.354;2023-03-03T16:24:06;6.90;99.90
16955;DHT22;8594;52.052;8.354;2023-03-03T16:26:46;7.00;99.90
16955;DHT22;8594;52.052;8.354;2023-03-03T16:29:40;6.70;99.90
16955;DHT22;8594;52.052;8.354;2023-03-03T16:32:15;6.70;99.90
16955;DHT22;8594;52.052;8.354;2023-03-03T16:34:55;6.70;99.90
16955;DHT22;8594;52.052;8.354;2023-03-03T16:37:28;6.70;99.90
16955;DHT22;8594;52.052;8.354;2023-03-03T16:40:08;6.70;99.90
16955;DHT22;8594;52.052;8.354;2023-03-03T16:42:37;6.70;99.90
16955;DHT22;8594;52.052;8.354;2023-03-03T16:45:20;6.90;99.90
16955;DHT22;8594;52.052;8.354;2023-03-03T16:50:54;6.80;99.90
16955;DHT22;8594;52.052;8.354;2023-03-03T16:53:45;6.70;99.90
16955;DHT22;8594;52.052;8.354;2023-03-03T16:56:21;6.70;99.90
16955;DHT22;8594;52.052;8.354;2023-03-03T16:59:06;6.40;99.90
16955;DHT22;8594;52.052;8.354;2023-03-03T17:01:58;6.30;99.90
16955;DHT22;8594;52.052;8.354;2023-03-03T17:04:39;6.40;99.90
16955;DHT22;8594;52.052;8.354;2023-03-03T17:07:21;6.50;99.90